Time;durP1;ratioP1;P1;durP2;ratioP2;P2;SDS_P1;SDS_P2;PMS_P1;PMS_P2;Temp;Humidity;BMP_temperature;BMP_pressure;BME280_temperature;BME280_humidity;BME280_pressure;Samples;Min_cycle;Max_cycle;Signal;HPM_P1;HPM_P2
2022/08/20 00:00:24;;;;;;;21.00;10.30;;;19.70;99.90;;;;;;4988952;28;20085;-85
2022/08/20 00:02:57;;;;;;;21.08;9.35;;;19.70;99.90;;;;;;4984944;28;20134;-85
2022/08/20 00:05:32;;;;;;;21.25;9.93;;;19.70;99.90;;;;;;4989336;28;20057;-86
2022/08/20 00:07:59;;;;;;;23.23;10.07;;;19.70;99.90;;;;;;4987474;28;20026;-85
2022/08/20 00:10:26;;;;;;;22.70;10.68;;;19.70;99.90;;;;;;4987422;28;20022;-85
2022/08/20 00:12:53;;;;;;;27.77;11.25;;;19.70;99.90;;;;;;4987156;28;20085;-86
2022/08/20 00:15:22;;;;;;;30.48;12.55;;;19.60;99.90;;;;;;4991515;28;20048;-86
2022/08/20 00:17:52;;;;;;;27.08;11.52;;;19.60;99.90;;;;;;4990546;28;20522;-87
2022/08/20 00:20:18;;;;;;;;;;;19.60;99.90;;;;;;4988195;28;20023;-87
2022/08/20 00:22:44;;;;;;;33.22;14.40;;;19.50;99.90;;;;;;4991692;28;19910;-87
2022/08/20 00:25:11;;;;;;;37.10;15.73;;;19.50;99.90;;;;;;4987136;28;20806;-88
2022/08/20 00:27:36;;;;;;;35.97;15.50;;;19.40;99.90;;;;;;4979841;28;20037;-88
2022/08/20 00:30:06;;;;;;;41.65;16.38;;;19.40;99.90;;;;;;4989630;28;20035;-87
2022/08/20 00:32:44;;;;;;;38.75;16.33;;;19.40;99.90;;;;;;4981719;28;20030;-87
2022/08/20 00:35:11;;;;;;;43.17;18.17;;;19.30;99.90;;;;;;5003831;28;20113;-87
2022/08/20 00:37:37;;;;;;;43.58;16.67;;;19.30;99.90;;;;;;4991525;28;20019;-87
2022/08/20 00:40:05;;;;;;;44.88;17.63;;;19.40;99.90;;;;;;4985037;28;20025;-87
2022/08/20 00:42:40;;;;;;;45.13;16.65;;;19.30;99.90;;;;;;4984985;28;20036;-87
2022/08/20 00:45:06;;;;;;;44.20;17.70;;;19.30;99.90;;;;;;4989784;28;20026;-86
2022/08/20 00:47:32;;;;;;;39.47;16.08;;;19.30;99.90;;;;;;4989978;28;21459;-86
2022/08/20 00:49:57;;;;;;;44.95;17.30;;;19.30;99.90;;;;;;4989043;28;20026;-86
2022/08/20 00:52:23;;;;;;;34.97;13.70;;;19.20;99.90;;;;;;4990235;28;20026;-86
2022/08/20 00:54:53;;;;;;;33.30;14.15;;;19.20;99.90;;;;;;4988571;28;20032;-86
2022/08/20 00:57:22;;;;;;;;;;;19.20;99.90;;;;;;4985401;28;20026;-86
2022/08/20 00:59:49;;;;;;;40.53;14.00;;;19.10;99.90;;;;;;5002566;28;19913;-86
2022/08/20 01:02:16;;;;;;;37.58;14.73;;;19.10;99.90;;;;;;4989797;28;20094;-86
2022/08/20 01:04:55;;;;;;;39.28;14.60;;;19.20;99.90;;;;;;4991092;28;20858;-87
2022/08/20 01:07:33;;;;;;;21.45;7.80;;;19.10;99.90;;;;;;4984721;28;20027;-87
2022/08/20 01:10:02;;;;;;;14.98;5.57;;;19.10;99.90;;;;;;4988823;28;20455;-87
2022/08/20 01:12:29;;;;;;;9.10;3.63;;;18.90;99.90;;;;;;4988769;28;20038;-87
2022/08/20 01:14:57;;;;;;;7.55;2.90;;;18.60;99.90;;;;;;4986190;28;20046;-87
2022/08/20 01:17:25;;;;;;;16.23;2.53;;;18.30;99.90;;;;;;5003274;28;20106;-88
2022/08/20 01:20:10;;;;;;;11.68;2.67;;;18.20;99.90;;;;;;4990054;28;20729;-88
2022/08/20 01:23:25;;;;;;;14.77;2.80;;;17.90;99.90;;;;;;4985531;28;20062;-89
2022/08/20 01:26:02;;;;;;;19.25;3.28;;;17.90;99.90;;;;;;4995030;28;20030;-90
2022/08/20 01:28:36;;;;;;;9.60;2.75;;;18.00;99.90;;;;;;4999724;28;20061;-89
2022/08/20 01:31:04;;;;;;;20.67;3.63;;;18.00;99.90;;;;;;4983975;28;20038;-89
2022/08/20 01:33:31;;;;;;;10.82;3.47;;;18.10;99.90;;;;;;4988133;28;20034;-89
2022/08/20 01:35:56;;;;;;;11.23;3.47;;;18.10;99.90;;;;;;4987684;28;20105;-89
2022/08/20 01:38:22;;;;;;;10.60;3.85;;;18.10;99.90;;;;;;4988550;28;20197;-89
2022/08/20 01:40:59;;;;;;;12.18;3.85;;;18.10;99.90;;;;;;4982651;28;20027;-89
2022/08/20 01:43:25;;;;;;;9.95;3.58;;;18.10;99.90;;;;;;4979527;28;20041;-89
2022/08/20 01:45:52;;;;;;;33.95;5.32;;;18.20;99.90;;;;;;4988397;28;20033;-89
2022/08/20 01:48:19;;;;;;;9.40;3.72;;;18.20;99.90;;;;;;4990082;28;20061;-89
2022/08/20 01:51:06;;;;;;;11.57;4.45;;;18.10;99.90;;;;;;4989176;28;20431;-88
2022/08/20 01:53:53;;;;;;;10.18;4.30;;;18.10;99.90;;;;;;4991600;28;20033;-89
2022/08/20 01:56:23;;;;;;;11.32;4.00;;;18.20;99.90;;;;;;4987172;28;20034;-88
2022/08/20 01:58:53;;;;;;;12.73;4.18;;;18.30;99.90;;;;;;4992174;28;20030;-88
2022/08/20 02:01:22;;;;;;;;;;;18.20;99.90;;;;;;4992851;28;20034;-88
2022/08/20 02:03:47;;;;;;;11.10;4.32;;;18.20;99.90;;;;;;5003614;28;19910;-88
2022/08/20 02:06:13;;;;;;;11.65;4.57;;;18.20;99.90;;;;;;4992596;28;20052;-88
2022/08/20 02:08:39;;;;;;;10.90;4.80;;;18.30;99.90;;;;;;4987853;28;20118;-87
2022/08/20 02:11:04;;;;;;;13.85;5.50;;;18.30;99.90;;;;;;4991043;28;20109;-88
2022/08/20 02:13:31;;;;;;;16.85;6.45;;;18.30;99.90;;;;;;4991802;28;20407;-87
2022/08/20 02:15:57;;;;;;;17.52;7.50;;;18.30;99.90;;;;;;4989997;28;20329;-87
2022/08/20 02:18:25;;;;;;;16.65;7.47;;;18.30;99.90;;;;;;4990781;28;20023;-88
2022/08/20 02:20:51;;;;;;;23.63;10.10;;;18.30;99.90;;;;;;4984968;28;20740;-88
2022/08/20 02:23:17;;;;;;;25.17;10.20;;;18.40;99.90;;;;;;4978589;28;20038;-88
2022/08/20 02:25:46;;;;;;;31.80;13.27;;;18.40;99.90;;;;;;4985766;28;20030;-88
2022/08/20 02:28:15;;;;;;;30.40;13.10;;;18.40;99.90;;;;;;4989095;28;20651;-87
2022/08/20 02:30:45;;;;;;;30.38;13.85;;;18.50;99.90;;;;;;4988296;28;20036;-88
2022/08/20 02:33:13;;;;;;;32.70;13.73;;;18.50;99.90;;;;;;4988181;28;20376;-88
2022/08/20 02:35:42;;;;;;;34.70;14.15;;;18.50;99.90;;;;;;4992344;28;20570;-88
2022/08/20 02:38:09;;;;;;;39.25;13.93;;;18.50;99.90;;;;;;4991016;28;20031;-88
2022/08/20 02:40:35;;;;;;;36.08;15.07;;;18.60;99.90;;;;;;4993055;28;20034;-88
2022/08/20 02:43:02;;;;;;;36.13;15.23;;;19.80;99.90;;;;;;4990875;28;20221;-88
2022/08/20 02:45:34;;;;;;;40.13;15.13;;;18.60;99.90;;;;;;4988577;28;20050;-88
2022/08/20 02:48:00;;;;;;;38.25;16.05;;;18.60;99.90;;;;;;4987766;28;20044;-88
2022/08/20 02:50:27;;;;;;;36.22;15.55;;;18.60;99.90;;;;;;4990403;28;20105;-89
2022/08/20 02:52:53;;;;;;;36.03;15.25;;;18.60;99.90;;;;;;4989678;28;20030;-88
2022/08/20 02:55:20;;;;;;;36.55;15.77;;;18.60;99.90;;;;;;4989591;28;20794;-89
2022/08/20 02:57:46;;;;;;;40.20;14.90;;;18.60;99.90;;;;;;4988822;28;20092;-89
2022/08/20 03:00:17;;;;;;;37.00;14.68;;;18.60;99.90;;;;;;4990411;28;20030;-88
2022/08/20 03:02:44;;;;;;;38.63;15.65;;;18.60;99.90;;;;;;4989270;28;20395;-88
2022/08/20 03:05:10;;;;;;;35.20;15.32;;;18.70;99.90;;;;;;4985821;28;20047;-88
2022/08/20 03:07:47;;;;;;;39.47;15.95;;;18.60;99.90;;;;;;4989403;28;20487;-88
2022/08/20 03:10:13;;;;;;;37.58;16.35;;;18.60;99.90;;;;;;4986232;28;20026;-88
2022/08/20 03:12:40;;;;;;;38.80;15.95;;;18.60;99.90;;;;;;4981654;28;20050;-88
2022/08/20 03:15:08;;;;;;;38.63;16.88;;;18.60;99.90;;;;;;4986765;28;20038;-88
2022/08/20 03:17:34;;;;;;;40.92;17.17;;;18.60;99.90;;;;;;4982218;28;20022;-87
2022/08/20 03:19:59;;;;;;;48.60;18.85;;;18.60;99.90;;;;;;4986132;28;20439;-88
2022/08/20 03:22:25;;;;;;;38.00;17.92;;;18.70;99.90;;;;;;4994123;28;20025;-88
2022/08/20 03:24:51;;;;;;;43.13;19.23;;;18.70;99.90;;;;;;4990379;28;20050;-88
2022/08/20 03:27:16;;;;;;;47.95;19.85;;;18.70;99.90;;;;;;4989660;28;20062;-88
2022/08/20 03:29:42;;;;;;;42.15;19.20;;;18.70;99.90;;;;;;4987252;28;20030;-88
2022/08/20 03:32:07;;;;;;;52.50;20.27;;;18.70;99.90;;;;;;4990277;28;20034;-87
2022/08/20 03:34:33;;;;;;;52.55;20.00;;;18.70;99.90;;;;;;4987079;28;20023;-88
2022/08/20 03:36:59;;;;;;;51.28;19.80;;;18.70;99.90;;;;;;4989260;28;20054;-88
2022/08/20 03:39:25;;;;;;;44.20;19.05;;;18.60;99.90;;;;;;4994149;28;20550;-88
2022/08/20 03:41:50;;;;;;;53.05;20.98;;;18.60;99.90;;;;;;4989588;28;20457;-88
2022/08/20 03:44:17;;;;;;;48.28;19.83;;;18.60;99.90;;;;;;4994305;28;20106;-88
2022/08/20 03:46:43;;;;;;;47.45;20.30;;;18.60;99.90;;;;;;4991563;28;20121;-88
2022/08/20 03:49:08;;;;;;;52.03;21.20;;;18.70;99.90;;;;;;4993346;28;20578;-88
2022/08/20 03:51:34;;;;;;;54.13;21.75;;;18.70;99.90;;;;;;4987175;28;20030;-88
2022/08/20 03:54:00;;;;;;;53.13;20.67;;;18.70;99.90;;;;;;4981473;28;20038;-87
2022/08/20 03:56:27;;;;;;;47.90;19.08;;;18.60;99.90;;;;;;5005285;28;20026;-87
2022/08/20 03:58:53;;;;;;;51.85;21.30;;;18.60;99.90;;;;;;4986794;28;20026;-88
2022/08/20 04:01:18;;;;;;;53.55;21.73;;;18.60;99.90;;;;;;4995871;28;20073;-87
2022/08/20 04:03:44;;;;;;;53.30;22.75;;;18.60;99.90;;;;;;4991623;28;20394;-87
2022/08/20 04:06:10;;;;;;;57.55;23.45;;;18.60;99.90;;;;;;4990299;28;20050;-88
2022/08/20 04:08:36;;;;;;;55.92;23.95;;;18.50;99.90;;;;;;4985147;28;20039;-87
2022/08/20 04:11:02;;;;;;;55.83;22.92;;;18.40;99.90;;;;;;4992423;28;20026;-87
2022/08/20 04:13:29;;;;;;;58.42;22.80;;;18.40;99.90;;;;;;4984865;28;20041;-87
2022/08/20 04:15:54;;;;;;;59.95;22.95;;;18.40;99.90;;;;;;4992949;28;20019;-88
2022/08/20 04:18:22;;;;;;;56.05;23.00;;;18.30;99.90;;;;;;4992448;28;20030;-88
2022/08/20 04:20:50;;;;;;;54.03;21.95;;;18.30;99.90;;;;;;4988520;28;20026;-87
2022/08/20 04:23:16;;;;;;;60.75;23.55;;;18.20;99.90;;;;;;4985578;28;20109;-88
2022/08/20 04:25:42;;;;;;;54.55;22.42;;;18.20;99.90;;;;;;4980037;28;20034;-88
2022/08/20 04:28:13;;;;;;;52.03;21.65;;;18.20;99.90;;;;;;4986791;28;20027;-88
2022/08/20 04:30:39;;;;;;;50.72;22.00;;;18.20;99.90;;;;;;4986113;28;20073;-88
2022/08/20 04:33:05;;;;;;;51.38;22.02;;;18.20;99.90;;;;;;4988914;28;20025;-88
2022/08/20 04:35:31;;;;;;;61.38;23.60;;;18.10;99.90;;;;;;5005285;28;20031;-88
2022/08/20 04:38:07;;;;;;;55.33;21.90;;;18.20;99.90;;;;;;4988259;28;20023;-88
2022/08/20 04:40:53;;;;;;;57.65;22.20;;;18.10;99.90;;;;;;4985011;28;20026;-88
2022/08/20 04:43:22;;;;;;;53.88;22.35;;;18.10;99.90;;;;;;4989039;28;20370;-88
2022/08/20 04:45:50;;;;;;;55.92;22.83;;;18.10;99.90;;;;;;4984948;28;20044;-88
2022/08/20 04:48:17;;;;;;;53.92;21.67;;;18.20;99.90;;;;;;4978197;28;20036;-88
2022/08/20 04:50:45;;;;;;;49.75;20.67;;;18.10;99.90;;;;;;4987954;28;20086;-88
2022/08/20 04:53:15;;;;;;;57.28;22.25;;;18.10;99.90;;;;;;4991079;28;20037;-88
2022/08/20 04:55:41;;;;;;;51.95;20.77;;;18.20;99.90;;;;;;4989542;28;20018;-88
2022/08/20 04:58:24;;;;;;;52.72;20.40;;;18.20;99.90;;;;;;4990497;28;20034;-88
2022/08/20 05:00:54;;;;;;;58.50;23.02;;;18.20;99.90;;;;;;4991714;28;20061;-88
2022/08/20 05:03:20;;;;;;;56.47;22.67;;;18.30;99.90;;;;;;4991954;28;20033;-88
2022/08/20 05:05:47;;;;;;;56.08;23.08;;;18.30;99.90;;;;;;4990988;28;20057;-88
2022/08/20 05:08:14;;;;;;;55.28;22.92;;;18.50;99.90;;;;;;4986410;28;20037;-88
2022/08/20 05:10:40;;;;;;;56.50;22.55;;;18.40;99.90;;;;;;4992290;28;20030;-88
2022/08/20 05:13:07;;;;;;;55.05;22.75;;;18.50;99.90;;;;;;5004249;28;20042;-88
2022/08/20 05:15:34;;;;;;;55.55;22.58;;;18.60;99.90;;;;;;4985513;28;20216;-88
2022/08/20 05:18:02;;;;;;;55.60;22.58;;;18.60;99.90;;;;;;4984376;28;20018;-88
2022/08/20 05:20:30;;;;;;;50.97;21.98;;;18.70;99.90;;;;;;4989403;28;20027;-88
2022/08/20 05:22:57;;;;;;;50.90;21.50;;;18.60;99.90;;;;;;4998225;28;20125;-88
2022/08/20 05:25:24;;;;;;;53.03;21.83;;;18.70;99.90;;;;;;4997413;28;20034;-88
2022/08/20 05:27:55;;;;;;;53.70;21.20;;;18.70;99.90;;;;;;4996888;28;20081;-88
2022/08/20 05:30:21;;;;;;;55.13;23.17;;;18.80;99.90;;;;;;4993585;28;20046;-88
2022/08/20 05:32:48;;;;;;;60.83;22.55;;;18.90;99.90;;;;;;4993236;28;20026;-88
2022/08/20 05:35:13;;;;;;;58.08;23.17;;;18.90;99.90;;;;;;4996604;28;20141;-88
2022/08/20 05:37:40;;;;;;;55.22;22.50;;;19.00;99.90;;;;;;4996660;28;20065;-88
2022/08/20 05:40:13;;;;;;;51.83;20.85;;;19.10;99.90;;;;;;4992025;28;20050;-88
2022/08/20 05:42:40;;;;;;;57.10;22.92;;;19.10;99.90;;;;;;4996899;28;20033;-88
2022/08/20 05:45:06;;;;;;;49.47;21.17;;;19.10;99.90;;;;;;4993082;28;20684;-88
2022/08/20 05:47:32;;;;;;;48.72;20.80;;;19.10;99.90;;;;;;4995871;28;20045;-88
2022/08/20 05:49:58;;;;;;;54.05;21.52;;;19.20;99.90;;;;;;4995344;28;20026;-88
2022/08/20 05:52:23;;;;;;;50.55;20.95;;;19.20;99.90;;;;;;4992046;28;20026;-87
2022/08/20 05:54:49;;;;;;;47.47;19.80;;;19.10;99.90;;;;;;4999882;28;20586;-88
2022/08/20 05:57:19;;;;;;;48.22;20.63;;;19.10;99.90;;;;;;4989054;28;20442;-88
2022/08/20 05:59:45;;;;;;;49.38;20.02;;;19.10;99.90;;;;;;4988478;28;20042;-88
2022/08/20 06:04:56;;;;;;;45.63;20.25;;;19.10;99.90;;;;;;4983070;28;20061;-85
2022/08/20 06:07:22;;;;;;;47.83;21.08;;;19.10;99.90;;;;;;4992633;28;20026;-85
2022/08/20 06:09:48;;;;;;;47.05;20.73;;;19.10;99.90;;;;;;4988263;28;20046;-85
2022/08/20 06:12:15;;;;;;;50.65;20.33;;;19.10;99.90;;;;;;4984877;28;20022;-85
2022/08/20 06:14:41;;;;;;;54.45;22.20;;;19.10;99.90;;;;;;4989613;28;20038;-85
2022/08/20 06:17:14;;;;;;;44.72;20.52;;;19.00;99.90;;;;;;4983797;28;20037;-85
2022/08/20 06:19:40;;;;;;;53.72;21.88;;;19.00;99.90;;;;;;4992923;28;20026;-85
2022/08/20 06:22:06;;;;;;;49.25;20.75;;;19.10;99.90;;;;;;4992180;28;20142;-85
2022/08/20 06:24:32;;;;;;;47.92;21.42;;;19.10;99.90;;;;;;4993720;28;20479;-85
2022/08/20 06:27:01;;;;;;;48.75;20.10;;;19.20;99.90;;;;;;4989269;28;20045;-85
2022/08/20 06:29:28;;;;;;;48.30;21.63;;;19.20;99.90;;;;;;4990474;28;20522;-85
2022/08/20 06:31:55;;;;;;;41.28;19.50;;;19.30;99.90;;;;;;4993867;28;20038;-85
2022/08/20 06:34:21;;;;;;;46.05;20.63;;;19.20;99.90;;;;;;4993646;28;20026;-85
2022/08/20 06:36:47;;;;;;;47.88;20.55;;;19.20;99.90;;;;;;4986618;28;20049;-85
2022/08/20 06:39:15;;;;;;;47.97;20.38;;;19.20;99.90;;;;;;4987365;28;20594;-85
2022/08/20 06:41:41;;;;;;;44.05;19.75;;;19.30;99.90;;;;;;4993668;28;20030;-86
2022/08/20 06:44:07;;;;;;;46.28;19.88;;;19.20;99.90;;;;;;4994727;28;20033;-85
2022/08/20 06:46:34;;;;;;;47.45;20.27;;;19.20;99.90;;;;;;4989794;28;20062;-85
2022/08/20 06:49:02;;;;;;;47.38;20.17;;;19.00;99.90;;;;;;4986920;28;20027;-85
2022/08/20 06:51:31;;;;;;;49.75;21.10;;;18.90;99.90;;;;;;4992917;28;20049;-85
2022/08/20 06:53:57;;;;;;;52.58;22.13;;;18.80;99.90;;;;;;4993718;28;20403;-85
2022/08/20 06:56:23;;;;;;;41.88;19.27;;;18.80;99.90;;;;;;4988087;28;20030;-85
2022/08/20 06:58:48;;;;;;;49.45;20.85;;;18.80;99.90;;;;;;4984899;28;20555;-85
2022/08/20 07:01:19;;;;;;;43.33;19.08;;;18.90;99.90;;;;;;4992989;28;20027;-85
2022/08/20 07:03:46;;;;;;;49.25;19.52;;;18.90;99.90;;;;;;4993855;28;20049;-84
2022/08/20 07:06:12;;;;;;;45.95;19.20;;;19.00;99.90;;;;;;4990386;28;20120;-84
2022/08/20 07:08:37;;;;;;;46.42;19.17;;;19.00;99.90;;;;;;4986867;28;20535;-84
2022/08/20 07:11:03;;;;;;;46.05;19.95;;;19.10;99.90;;;;;;4985444;28;20184;-84
2022/08/20 07:13:29;;;;;;;46.83;19.48;;;19.10;99.90;;;;;;4988489;28;20026;-84
2022/08/20 07:15:55;;;;;;;44.92;20.15;;;19.10;99.90;;;;;;4984873;28;20468;-84
2022/08/20 07:18:22;;;;;;;43.60;19.05;;;18.90;99.90;;;;;;4991572;28;20584;-84
2022/08/20 07:20:48;;;;;;;42.08;18.67;;;19.10;99.90;;;;;;4990375;28;20027;-84
2022/08/20 07:23:14;;;;;;;36.45;17.83;;;19.00;99.90;;;;;;4991690;28;20023;-84
2022/08/20 07:25:41;;;;;;;34.92;15.70;;;19.00;99.90;;;;;;4988211;28;20065;-84
2022/08/20 07:28:13;;;;;;;36.05;16.25;;;19.00;99.90;;;;;;4989704;28;20026;-84
2022/08/20 07:33:25;;;;;;;31.35;15.30;;;19.10;99.90;;;;;;4987906;28;20037;-84
2022/08/20 07:35:51;;;;;;;32.10;15.65;;;19.20;99.90;;;;;;4985410;28;20495;-84
2022/08/20 07:38:23;;;;;;;30.35;13.60;;;19.20;99.90;;;;;;4991839;28;20037;-84
2022/08/20 07:40:54;;;;;;;30.73;14.95;;;19.30;99.90;;;;;;4977124;28;20081;-84
2022/08/20 07:43:23;;;;;;;29.70;14.93;;;19.40;99.90;;;;;;4989928;28;20126;-84
2022/08/20 07:45:56;;;;;;;24.67;11.98;;;19.50;99.90;;;;;;4984681;28;20034;-84
2022/08/20 07:48:29;;;;;;;23.85;12.60;;;19.70;99.90;;;;;;4992248;28;20021;-84
2022/08/20 07:50:57;;;;;;;25.58;12.38;;;19.80;99.90;;;;;;4987185;28;20030;-84
2022/08/20 07:53:26;;;;;;;20.55;11.13;;;20.00;99.90;;;;;;4987624;28;20022;-83
2022/08/20 07:55:53;;;;;;;24.65;13.00;;;20.10;99.90;;;;;;4982314;28;20030;-84
2022/08/20 07:58:22;;;;;;;26.38;12.70;;;20.50;99.90;;;;;;4983481;28;20052;-84
2022/08/20 08:00:48;;;;;;;28.77;13.02;;;20.70;99.90;;;;;;4982484;28;20019;-84
2022/08/20 08:03:14;;;;;;;27.15;14.40;;;20.60;99.90;;;;;;4981931;28;20038;-84
2022/08/20 08:05:43;;;;;;;25.90;13.95;;;20.50;99.90;;;;;;4998138;28;20415;-84
2022/08/20 08:08:12;;;;;;;25.47;13.93;;;20.80;99.90;;;;;;4986714;28;20027;-84
2022/08/20 08:10:40;;;;;;;26.80;14.38;;;20.90;99.90;;;;;;4985336;28;20557;-83
2022/08/20 08:13:10;;;;;;;27.33;13.13;;;21.00;99.90;;;;;;4986007;28;20045;-84
2022/08/20 08:15:39;;;;;;;26.27;14.20;;;21.00;99.90;;;;;;4986884;28;20035;-84
2022/08/20 08:18:10;;;;;;;24.25;12.75;;;21.20;99.90;;;;;;4988950;28;20037;-84
2022/08/20 08:20:40;;;;;;;24.08;12.52;;;21.50;99.90;;;;;;4981950;28;20566;-84
2022/08/20 08:23:10;;;;;;;23.05;13.07;;;21.50;99.90;;;;;;4989907;28;20583;-84
2022/08/20 08:25:44;;;;;;;25.52;13.25;;;21.40;99.90;;;;;;4986875;28;20130;-84
2022/08/20 08:28:12;;;;;;;24.20;13.15;;;21.30;99.90;;;;;;4990600;28;20050;-84
2022/08/20 08:30:39;;;;;;;25.15;12.95;;;21.30;99.90;;;;;;4975530;28;20023;-86
2022/08/20 08:35:50;;;;;;;27.65;13.23;;;21.30;99.90;;;;;;4992965;28;20037;-85
2022/08/20 08:38:16;;;;;;;25.67;14.10;;;21.50;99.90;;;;;;4987514;28;20039;-85
2022/08/20 08:40:42;;;;;;;24.73;12.77;;;21.50;99.90;;;;;;4989248;28;20030;-85
2022/08/20 08:43:11;;;;;;;24.58;12.77;;;21.50;99.90;;;;;;4990448;28;20113;-85
2022/08/20 08:45:47;;;;;;;25.73;13.70;;;21.50;99.90;;;;;;4990694;28;20553;-85
2022/08/20 08:48:15;;;;;;;24.42;12.35;;;21.70;99.90;;;;;;4986296;28;20026;-86
2022/08/20 08:50:44;;;;;;;21.02;11.60;;;22.50;99.90;;;;;;4989147;28;20038;-86
2022/08/20 08:53:17;;;;;;;20.67;10.95;;;23.30;99.90;;;;;;4991652;28;20019;-85
2022/08/20 08:55:43;;;;;;;18.73;10.63;;;24.30;99.90;;;;;;4981601;28;20050;-85
2022/08/20 08:58:09;;;;;;;22.67;12.32;;;23.90;99.90;;;;;;4990914;28;20031;-85
2022/08/20 09:00:36;;;;;;;20.88;11.50;;;23.90;99.90;;;;;;4983072;28;20022;-85
2022/08/20 09:03:11;;;;;;;18.60;10.23;;;23.70;99.90;;;;;;4985525;28;20048;-85
2022/08/20 09:05:51;;;;;;;19.65;11.63;;;23.50;99.90;;;;;;4986770;28;20054;-85
2022/08/20 09:08:24;;;;;;;21.60;13.38;;;22.40;99.90;;;;;;4985423;28;20026;-84
2022/08/20 09:10:50;;;;;;;20.40;11.95;;;22.00;99.90;;;;;;4982806;28;20030;-85
2022/08/20 09:13:16;;;;;;;19.35;11.45;;;22.90;99.90;;;;;;4985055;28;20034;-85
2022/08/20 09:15:42;;;;;;;17.80;11.40;;;23.60;99.90;;;;;;4990824;28;20026;-85
2022/08/20 09:18:07;;;;;;;18.88;11.88;;;23.80;99.90;;;;;;4983986;28;20027;-85
2022/08/20 09:20:33;;;;;;;18.17;10.63;;;23.70;99.90;;;;;;4988730;28;20027;-85
2022/08/20 09:22:59;;;;;;;15.82;9.85;;;24.70;99.90;;;;;;4989406;28;20023;-85
2022/08/20 09:25:25;;;;;;;15.27;9.15;;;25.40;99.90;;;;;;4985946;28;20102;-85
2022/08/20 09:27:51;;;;;;;16.65;10.02;;;25.10;99.90;;;;;;4986797;28;20128;-84
2022/08/20 09:30:17;;;;;;;15.25;9.25;;;25.50;99.90;;;;;;4998497;28;20034;-84
2022/08/20 09:32:43;;;;;;;17.70;9.95;;;26.30;99.90;;;;;;4987321;28;20491;-85
2022/08/20 09:35:09;;;;;;;15.05;9.35;;;26.90;99.90;;;;;;4990679;28;20145;-85
2022/08/20 09:37:35;;;;;;;17.30;9.40;;;27.10;99.90;;;;;;4982686;28;20017;-85
2022/08/20 09:40:01;;;;;;;16.33;8.77;;;28.20;99.90;;;;;;4991157;28;20165;-86
2022/08/20 09:42:31;;;;;;;15.52;9.75;;;27.70;99.90;;;;;;4972111;28;20022;-86
2022/08/20 09:44:57;;;;;;;16.08;9.38;;;26.40;99.90;;;;;;4989614;28;20027;-86
2022/08/20 09:47:24;;;;;;;16.17;9.88;;;25.90;99.90;;;;;;4988856;28;20038;-86
2022/08/20 09:49:49;;;;;;;16.52;10.80;;;25.10;99.90;;;;;;4991258;28;20478;-86
2022/08/20 09:52:24;;;;;;;16.48;10.48;;;24.30;99.90;;;;;;4991678;28;20077;-86
2022/08/20 09:54:53;;;;;;;17.73;10.20;;;24.00;99.90;;;;;;4990470;28;20038;-86
2022/08/20 09:57:19;;;;;;;16.60;10.50;;;24.90;99.90;;;;;;4996826;28;20046;-86
2022/08/20 09:59:52;;;;;;;17.02;8.77;;;26.80;99.90;;;;;;4985486;28;20065;-86
2022/08/20 10:02:17;;;;;;;15.07;8.30;;;27.80;99.90;;;;;;4990339;28;20023;-86
2022/08/20 10:04:43;;;;;;;12.07;7.88;;;28.10;99.90;;;;;;4993533;28;20065;-86
2022/08/20 10:07:09;;;;;;;12.65;7.90;;;28.50;99.90;;;;;;4994554;28;20026;-86
2022/08/20 10:09:36;;;;;;;13.30;7.90;;;28.20;99.90;;;;;;4994715;28;20117;-86
2022/08/20 10:12:02;;;;;;;12.93;8.73;;;28.70;99.90;;;;;;5010029;28;20494;-87
2022/08/20 10:14:28;;;;;;;13.18;8.13;;;29.00;99.90;;;;;;4991911;28;20031;-86
2022/08/20 10:16:55;;;;;;;12.52;7.38;;;29.00;99.90;;;;;;4990816;28;20029;-87
2022/08/20 10:19:21;;;;;;;13.77;7.97;;;29.10;99.90;;;;;;4992537;28;20022;-87
2022/08/20 10:21:48;;;;;;;20.30;12.90;;;27.20;99.90;;;;;;4992945;28;20038;-86
2022/08/20 10:24:14;;;;;;;21.75;13.85;;;25.30;99.90;;;;;;4989982;28;20030;-86
2022/08/20 10:26:39;;;;;;;25.83;14.52;;;24.40;99.90;;;;;;4995422;28;20038;-86
2022/08/20 10:29:05;;;;;;;23.95;15.25;;;24.10;99.90;;;;;;4993177;28;20125;-86
2022/08/20 10:31:31;;;;;;;28.20;15.50;;;24.10;99.90;;;;;;4991875;28;20022;-87
2022/08/20 10:33:56;;;;;;;26.55;17.58;;;24.10;99.90;;;;;;4994146;28;20034;-87
2022/08/20 10:36:22;;;;;;;31.90;18.08;;;24.00;99.90;;;;;;4993210;28;20022;-87
2022/08/20 10:38:48;;;;;;;31.50;19.13;;;23.20;99.90;;;;;;4992205;28;20118;-86
2022/08/20 10:41:14;;;;;;;30.73;19.05;;;24.50;99.90;;;;;;4992907;28;20018;-87
2022/08/20 10:43:39;;;;;;;32.22;19.27;;;25.60;99.90;;;;;;4994523;28;20034;-87
2022/08/20 10:46:05;;;;;;;33.90;19.67;;;27.40;99.90;;;;;;4990579;28;20117;-87
2022/08/20 10:48:31;;;;;;;27.50;16.73;;;27.10;99.90;;;;;;4990382;28;20737;-87
2022/08/20 10:50:57;;;;;;;31.73;19.15;;;26.60;99.90;;;;;;4994818;28;20031;-87
2022/08/20 10:53:23;;;;;;;31.52;19.65;;;27.40;99.90;;;;;;4996057;28;20022;-87
2022/08/20 10:55:48;;;;;;;29.42;19.70;;;27.60;99.90;;;;;;5001273;28;20027;-87
2022/08/20 10:58:14;;;;;;;35.08;23.33;;;27.70;99.90;;;;;;4988724;28;20038;-86
2022/08/20 11:00:40;;;;;;;30.23;18.55;;;27.10;99.90;;;;;;4992123;28;20027;-87
2022/08/20 11:03:06;;;;;;;27.77;20.60;;;27.30;99.90;;;;;;4991995;28;20022;-87
2022/08/20 11:05:32;;;;;;;33.38;20.15;;;28.20;99.90;;;;;;4992866;28;20062;-87
2022/08/20 11:08:01;;;;;;;30.35;19.80;;;28.60;99.90;;;;;;5001897;28;20038;-87
2022/08/20 11:10:29;;;;;;;23.53;13.30;;;28.50;99.90;;;;;;4992113;28;20057;-87
2022/08/20 11:12:55;;;;;;;30.73;18.65;;;28.70;99.90;;;;;;5003856;28;20269;-87
2022/08/20 11:15:21;;;;;;;28.52;18.75;;;28.10;99.90;;;;;;4985522;28;20036;-87
2022/08/20 11:17:47;;;;;;;25.30;16.92;;;28.40;99.90;;;;;;4991334;28;20022;-87
2022/08/20 11:20:15;;;;;;;27.63;18.92;;;29.50;99.90;;;;;;4987151;28;20109;-87
2022/08/20 11:22:40;;;;;;;29.10;19.23;;;29.40;99.90;;;;;;4990024;28;20442;-87
2022/08/20 11:25:08;;;;;;;24.42;16.85;;;29.20;99.90;;;;;;4984687;28;20030;-87
2022/08/20 11:27:38;;;;;;;28.17;19.55;;;29.20;99.90;;;;;;4990679;28;20130;-87
2022/08/20 11:30:07;;;;;;;24.52;18.15;;;28.90;99.90;;;;;;5000926;28;20018;-88
2022/08/20 11:32:32;;;;;;;24.50;17.37;;;29.80;99.60;;;;;;4994052;28;20506;-87
2022/08/20 11:34:58;;;;;;;24.60;14.88;;;29.70;99.90;;;;;;4993470;28;20026;-87
2022/08/20 11:37:24;;;;;;;25.13;15.95;;;30.30;97.10;;;;;;4994447;28;20037;-87
2022/08/20 11:39:50;;;;;;;23.98;16.75;;;30.40;97.30;;;;;;4989704;28;20094;-87
2022/08/20 11:42:16;;;;;;;24.20;16.83;;;29.30;98.90;;;;;;4984671;28;20030;-87
2022/08/20 11:44:42;;;;;;;23.20;16.27;;;30.50;97.30;;;;;;4988107;28;20114;-87
2022/08/20 11:47:18;;;;;;;23.85;15.93;;;30.30;96.70;;;;;;4987913;28;20174;-87
2022/08/20 11:49:43;;;;;;;26.95;15.77;;;30.30;97.00;;;;;;5005826;28;20049;-88
2022/08/20 11:52:09;;;;;;;21.80;15.07;;;30.20;96.80;;;;;;4990124;28;20478;-87
2022/08/20 11:54:39;;;;;;;24.48;15.82;;;29.50;98.00;;;;;;4991795;28;20034;-87
2022/08/20 11:57:04;;;;;;;;;;;28.80;98.90;;;;;;4992153;28;20018;-87
2022/08/20 11:59:30;;;;;;;21.08;13.60;;;27.20;99.90;;;;;;4987387;28;19925;-87
2022/08/20 12:01:57;;;;;;;23.42;13.85;;;27.50;99.90;;;;;;4991346;28;20026;-87
2022/08/20 12:04:23;;;;;;;18.48;10.00;;;29.20;99.20;;;;;;4990409;28;20077;-87
2022/08/20 12:06:49;;;;;;;20.35;12.20;;;30.20;96.30;;;;;;4989537;28;20031;-87
2022/08/20 12:09:16;;;;;;;20.60;12.05;;;28.90;98.40;;;;;;4991549;28;20037;-87
2022/08/20 12:11:42;;;;;;;18.73;11.63;;;29.40;98.40;;;;;;4987848;28;20025;-88
2022/08/20 12:14:08;;;;;;;21.27;14.15;;;30.30;94.00;;;;;;4988737;28;20014;-87
2022/08/20 12:16:33;;;;;;;21.73;13.60;;;27.60;98.70;;;;;;4980190;28;20058;-87
2022/08/20 12:18:59;;;;;;;23.70;13.68;;;26.30;99.90;;;;;;4990793;28;20720;-87
2022/08/20 12:21:25;;;;;;;18.02;8.70;;;26.50;99.90;;;;;;4991941;28;20033;-87
2022/08/20 12:23:50;;;;;;;22.25;12.35;;;25.70;99.90;;;;;;4984147;28;20081;-87
2022/08/20 12:26:16;;;;;;;21.95;11.20;;;25.60;99.90;;;;;;4989806;28;20038;-87
2022/08/20 12:28:42;;;;;;;20.48;10.30;;;26.10;99.90;;;;;;4986066;28;20061;-87
2022/08/20 12:31:08;;;;;;;22.10;12.68;;;25.90;99.90;;;;;;4987019;28;20122;-87
2022/08/20 12:33:34;;;;;;;21.25;11.15;;;27.10;99.90;;;;;;4989478;28;20037;-88
2022/08/20 12:35:59;;;;;;;17.70;9.85;;;29.10;98.70;;;;;;4989133;28;20037;-87
2022/08/20 12:38:25;;;;;;;15.95;9.77;;;30.80;95.50;;;;;;4989965;28;20022;-87
2022/08/20 12:40:51;;;;;;;14.13;8.25;;;30.10;94.80;;;;;;4990579;28;20027;-87